sensor_id;sensor_type;location;lat;lon;timestamp;temperature;humidity
21950;DHT22;11139;51.284;7.226;2022-11-15T00:00:03;8.80;99.90
21950;DHT22;11139;51.284;7.226;2022-11-15T00:02:29;8.80;99.90
21950;DHT22;11139;51.284;7.226;2022-11-15T00:04:54;8.80;99.90
21950;DHT22;11139;51.284;7.226;2022-11-15T00:07:19;8.90;99.90
21950;DHT22;11139;51.284;7.226;2022-11-15T00:09:45;8.80;99.90
21950;DHT22;11139;51.284;7.226;2022-11-15T00:12:10;8.90;99.90
21950;DHT22;11139;51.284;7.226;2022-11-15T00:14:36;8.80;99.90
21950;DHT22;11139;51.284;7.226;2022-11-15T00:17:01;8.90;99.90
21950;DHT22;11139;51.284;7.226;2022-11-15T00:19:27;8.90;99.90
21950;DHT22;11139;51.284;7.226;2022-11-15T00:21:52;8.90;99.90
21950;DHT22;11139;51.284;7.226;2022-11-15T00:24:18;8.90;99.90
21950;DHT22;11139;51.284;7.226;2022-11-15T00:26:43;8.90;99.90
21950;DHT22;11139;51.284;7.226;2022-11-15T00:29:09;8.90;99.90
21950;DHT22;11139;51.284;7.226;2022-11-15T00:31:34;8.90;99.90
21950;DHT22;11139;51.284;7.226;2022-11-15T00:34:00;8.90;99.90
21950;DHT22;11139;51.284;7.226;2022-11-15T00:36:25;8.90;99.90
21950;DHT22;11139;51.284;7.226;2022-11-15T00:38:51;8.90;99.90
21950;DHT22;11139;51.284;7.226;2022-11-15T00:41:16;8.90;99.90
21950;DHT22;11139;51.284;7.226;2022-11-15T00:43:42;8.90;99.90
21950;DHT22;11139;51.284;7.226;2022-11-15T00:46:09;8.90;99.90
21950;DHT22;11139;51.284;7.226;2022-11-15T00:48:35;8.90;99.90
21950;DHT22;11139;51.284;7.226;2022-11-15T00:51:00;8.90;99.90
21950;DHT22;11139;51.284;7.226;2022-11-15T00:53:26;8.90;99.90
21950;DHT22;11139;51.284;7.226;2022-11-15T00:55:52;8.90;99.90
21950;DHT22;11139;51.284;7.226;2022-11-15T00:58:17;9.00;99.90
21950;DHT22;11139;51.284;7.226;2022-11-15T01:00:43;8.90;99.90
21950;DHT22;11139;51.284;7.226;2022-11-15T01:03:08;9.00;99.90
21950;DHT22;11139;51.284;7.226;2022-11-15T01:05:36;9.00;99.90
21950;DHT22;11139;51.284;7.226;2022-11-15T01:08:02;9.00;99.90
21950;DHT22;11139;51.284;7.226;2022-11-15T01:10:27;9.00;99.90
21950;DHT22;11139;51.284;7.226;2022-11-15T01:12:53;9.00;99.90
21950;DHT22;11139;51.284;7.226;2022-11-15T01:15:18;9.00;99.90
21950;DHT22;11139;51.284;7.226;2022-11-15T01:17:44;9.00;99.90
21950;DHT22;11139;51.284;7.226;2022-11-15T01:20:09;9.00;99.90
21950;DHT22;11139;51.284;7.226;2022-11-15T01:22:35;9.00;99.90
21950;DHT22;11139;51.284;7.226;2022-11-15T01:25:00;9.00;99.90
21950;DHT22;11139;51.284;7.226;2022-11-15T01:27:26;9.10;99.90
21950;DHT22;11139;51.284;7.226;2022-11-15T01:29:51;9.10;99.90
21950;DHT22;11139;51.284;7.226;2022-11-15T01:32:17;9.00;99.90
21950;DHT22;11139;51.284;7.226;2022-11-15T01:34:43;9.00;99.90
21950;DHT22;11139;51.284;7.226;2022-11-15T01:37:08;9.00;99.90
21950;DHT22;11139;51.284;7.226;2022-11-15T01:39:34;9.00;99.90
21950;DHT22;11139;51.284;7.226;2022-11-15T01:41:59;9.10;99.90
21950;DHT22;11139;51.284;7.226;2022-11-15T01:47:01;9.10;99.90
21950;DHT22;11139;51.284;7.226;2022-11-15T01:49:27;9.00;99.90
21950;DHT22;11139;51.284;7.226;2022-11-15T01:51:54;9.10;99.90
21950;DHT22;11139;51.284;7.226;2022-11-15T01:54:20;9.10;99.90
21950;DHT22;11139;51.284;7.226;2022-11-15T01:56:50;9.10;99.90
21950;DHT22;11139;51.284;7.226;2022-11-15T01:59:17;9.10;99.90
21950;DHT22;11139;51.284;7.226;2022-11-15T02:01:43;9.10;99.90
21950;DHT22;11139;51.284;7.226;2022-11-15T02:04:11;9.10;99.90
21950;DHT22;11139;51.284;7.226;2022-11-15T02:06:37;9.10;99.90
21950;DHT22;11139;51.284;7.226;2022-11-15T02:09:03;9.10;99.90
21950;DHT22;11139;51.284;7.226;2022-11-15T02:11:29;9.10;99.90
21950;DHT22;11139;51.284;7.226;2022-11-15T02:13:55;9.10;99.90
21950;DHT22;11139;51.284;7.226;2022-11-15T02:16:26;9.10;99.90
21950;DHT22;11139;51.284;7.226;2022-11-15T02:37:20;9.10;99.90
21950;DHT22;11139;51.284;7.226;2022-11-15T02:39:51;9.10;99.90
21950;DHT22;11139;51.284;7.226;2022-11-15T02:42:24;9.20;99.90
21950;DHT22;11139;51.284;7.226;2022-11-15T02:45:09;9.20;99.90
21950;DHT22;11139;51.284;7.226;2022-11-15T02:47:38;9.20;99.90
21950;DHT22;11139;51.284;7.226;2022-11-15T02:50:07;9.20;99.90
21950;DHT22;11139;51.284;7.226;2022-11-15T02:52:34;9.20;99.90
21950;DHT22;11139;51.284;7.226;2022-11-15T02:55:00;9.20;99.90
21950;DHT22;11139;51.284;7.226;2022-11-15T03:00:04;9.20;99.90
21950;DHT22;11139;51.284;7.226;2022-11-15T03:02:41;9.20;99.90
21950;DHT22;11139;51.284;7.226;2022-11-15T03:10:28;9.20;99.90
21950;DHT22;11139;51.284;7.226;2022-11-15T03:12:59;9.20;99.90
21950;DHT22;11139;51.284;7.226;2022-11-15T03:15:29;9.20;99.90
21950;DHT22;11139;51.284;7.226;2022-11-15T03:18:01;9.20;99.90
21950;DHT22;11139;51.284;7.226;2022-11-15T03:20:27;9.20;99.90
21950;DHT22;11139;51.284;7.226;2022-11-15T03:22:53;9.20;99.90
21950;DHT22;11139;51.284;7.226;2022-11-15T03:25:21;9.20;99.90
21950;DHT22;11139;51.284;7.226;2022-11-15T03:27:49;9.20;99.90
21950;DHT22;11139;51.284;7.226;2022-11-15T03:30:15;9.20;99.90
21950;DHT22;11139;51.284;7.226;2022-11-15T03:32:44;9.20;99.90
21950;DHT22;11139;51.284;7.226;2022-11-15T03:35:22;9.20;99.90
21950;DHT22;11139;51.284;7.226;2022-11-15T03:37:50;9.20;99.90
21950;DHT22;11139;51.284;7.226;2022-11-15T03:40:17;9.20;99.90
21950;DHT22;11139;51.284;7.226;2022-11-15T03:42:46;9.20;99.90
21950;DHT22;11139;51.284;7.226;2022-11-15T03:45:15;9.30;99.90
21950;DHT22;11139;51.284;7.226;2022-11-15T03:47:43;9.20;99.90
21950;DHT22;11139;51.284;7.226;2022-11-15T03:50:12;9.30;99.90
21950;DHT22;11139;51.284;7.226;2022-11-15T03:52:38;9.30;99.90
21950;DHT22;11139;51.284;7.226;2022-11-15T03:55:05;9.30;99.90
21950;DHT22;11139;51.284;7.226;2022-11-15T03:57:31;9.30;99.90
21950;DHT22;11139;51.284;7.226;2022-11-15T03:59:57;9.30;99.90
21950;DHT22;11139;51.284;7.226;2022-11-15T04:02:22;9.30;99.90
21950;DHT22;11139;51.284;7.226;2022-11-15T04:04:48;9.30;99.90
21950;DHT22;11139;51.284;7.226;2022-11-15T04:07:13;9.30;99.90
21950;DHT22;11139;51.284;7.226;2022-11-15T04:09:38;9.30;99.90
21950;DHT22;11139;51.284;7.226;2022-11-15T04:12:24;9.30;99.90
21950;DHT22;11139;51.284;7.226;2022-11-15T04:14:59;9.30;99.90
21950;DHT22;11139;51.284;7.226;2022-11-15T04:20:00;9.30;99.90
21950;DHT22;11139;51.284;7.226;2022-11-15T04:22:44;9.30;99.90
21950;DHT22;11139;51.284;7.226;2022-11-15T04:25:28;9.30;99.90
21950;DHT22;11139;51.284;7.226;2022-11-15T04:27:54;9.40;99.90
21950;DHT22;11139;51.284;7.226;2022-11-15T04:30:19;9.30;99.90
21950;DHT22;11139;51.284;7.226;2022-11-15T04:32:44;9.30;99.90
21950;DHT22;11139;51.284;7.226;2022-11-15T04:35:10;9.40;99.90
21950;DHT22;11139;51.284;7.226;2022-11-15T04:37:36;9.30;99.90
21950;DHT22;11139;51.284;7.226;2022-11-15T04:40:01;9.30;99.90
21950;DHT22;11139;51.284;7.226;2022-11-15T04:42:27;9.30;99.90
21950;DHT22;11139;51.284;7.226;2022-11-15T04:44:52;9.30;99.90
21950;DHT22;11139;51.284;7.226;2022-11-15T04:47:17;9.40;99.90
21950;DHT22;11139;51.284;7.226;2022-11-15T04:49:47;9.40;99.90
21950;DHT22;11139;51.284;7.226;2022-11-15T04:52:12;9.40;99.90
21950;DHT22;11139;51.284;7.226;2022-11-15T04:54:38;9.40;99.90
21950;DHT22;11139;51.284;7.226;2022-11-15T04:57:03;9.40;99.90
21950;DHT22;11139;51.284;7.226;2022-11-15T04:59:29;9.40;99.90
21950;DHT22;11139;51.284;7.226;2022-11-15T05:01:54;9.40;99.90
21950;DHT22;11139;51.284;7.226;2022-11-15T05:04:20;9.40;99.90
21950;DHT22;11139;51.284;7.226;2022-11-15T05:06:46;9.40;99.90
21950;DHT22;11139;51.284;7.226;2022-11-15T05:09:11;9.40;99.90
21950;DHT22;11139;51.284;7.226;2022-11-15T05:11:38;9.40;99.90
21950;DHT22;11139;51.284;7.226;2022-11-15T05:14:03;9.40;99.90
21950;DHT22;11139;51.284;7.226;2022-11-15T05:16:29;9.40;99.90
21950;DHT22;11139;51.284;7.226;2022-11-15T05:18:55;9.40;99.90
21950;DHT22;11139;51.284;7.226;2022-11-15T05:21:20;9.40;99.90
21950;DHT22;11139;51.284;7.226;2022-11-15T05:23:46;9.50;99.90
21950;DHT22;11139;51.284;7.226;2022-11-15T05:26:12;9.40;99.90
21950;DHT22;11139;51.284;7.226;2022-11-15T05:28:37;9.50;99.90
21950;DHT22;11139;51.284;7.226;2022-11-15T05:31:07;9.40;99.90
21950;DHT22;11139;51.284;7.226;2022-11-15T05:33:33;9.40;99.90
21950;DHT22;11139;51.284;7.226;2022-11-15T05:36:07;9.50;99.90
21950;DHT22;11139;51.284;7.226;2022-11-15T05:38:35;9.40;99.90
21950;DHT22;11139;51.284;7.226;2022-11-15T05:41:00;9.40;99.90
21950;DHT22;11139;51.284;7.226;2022-11-15T05:43:27;9.50;99.90
21950;DHT22;11139;51.284;7.226;2022-11-15T05:45:53;9.50;99.90
21950;DHT22;11139;51.284;7.226;2022-11-15T05:48:18;9.50;99.90
21950;DHT22;11139;51.284;7.226;2022-11-15T05:50:45;9.50;99.90
21950;DHT22;11139;51.284;7.226;2022-11-15T05:53:11;9.50;99.90
21950;DHT22;11139;51.284;7.226;2022-11-15T05:55:38;9.50;99.90
21950;DHT22;11139;51.284;7.226;2022-11-15T05:58:04;9.50;99.90
21950;DHT22;11139;51.284;7.226;2022-11-15T06:00:29;9.50;99.90
21950;DHT22;11139;51.284;7.226;2022-11-15T06:02:55;9.50;99.90
21950;DHT22;11139;51.284;7.226;2022-11-15T06:05:20;9.50;99.90
21950;DHT22;11139;51.284;7.226;2022-11-15T06:07:46;9.60;99.90
21950;DHT22;11139;51.284;7.226;2022-11-15T06:10:11;9.50;99.90
21950;DHT22;11139;51.284;7.226;2022-11-15T06:12:36;9.50;99.90
21950;DHT22;11139;51.284;7.226;2022-11-15T06:15:02;9.50;99.90
21950;DHT22;11139;51.284;7.226;2022-11-15T06:17:28;9.50;99.90
21950;DHT22;11139;51.284;7.226;2022-11-15T06:19:54;9.60;99.90
21950;DHT22;11139;51.284;7.226;2022-11-15T06:22:19;9.60;99.90
21950;DHT22;11139;51.284;7.226;2022-11-15T06:24:44;9.60;99.90
21950;DHT22;11139;51.284;7.226;2022-11-15T06:27:10;9.60;99.90
21950;DHT22;11139;51.284;7.226;2022-11-15T06:29:36;9.60;99.90
21950;DHT22;11139;51.284;7.226;2022-11-15T06:32:01;9.60;99.90
21950;DHT22;11139;51.284;7.226;2022-11-15T06:34:27;9.60;99.90
21950;DHT22;11139;51.284;7.226;2022-11-15T06:36:52;9.60;99.90
21950;DHT22;11139;51.284;7.226;2022-11-15T06:39:18;9.60;99.90
21950;DHT22;11139;51.284;7.226;2022-11-15T06:41:44;9.60;99.90
21950;DHT22;11139;51.284;7.226;2022-11-15T06:44:09;9.60;99.90
21950;DHT22;11139;51.284;7.226;2022-11-15T06:46:35;9.60;99.90
21950;DHT22;11139;51.284;7.226;2022-11-15T06:49:00;9.60;99.90
21950;DHT22;11139;51.284;7.226;2022-11-15T06:51:26;9.60;99.90
21950;DHT22;11139;51.284;7.226;2022-11-15T06:53:51;9.60;99.90
21950;DHT22;11139;51.284;7.226;2022-11-15T06:56:17;9.70;99.90
21950;DHT22;11139;51.284;7.226;2022-11-15T06:58:42;9.60;99.90
21950;DHT22;11139;51.284;7.226;2022-11-15T07:01:08;9.60;99.90
21950;DHT22;11139;51.284;7.226;2022-11-15T07:03:34;9.60;99.90
21950;DHT22;11139;51.284;7.226;2022-11-15T07:06:00;9.60;99.90
21950;DHT22;11139;51.284;7.226;2022-11-15T07:08:26;9.60;99.90
21950;DHT22;11139;51.284;7.226;2022-11-15T07:10:53;9.60;99.90
21950;DHT22;11139;51.284;7.226;2022-11-15T07:13:18;9.60;99.90
21950;DHT22;11139;51.284;7.226;2022-11-15T07:15:44;9.60;99.90
21950;DHT22;11139;51.284;7.226;2022-11-15T07:18:10;9.60;99.90
21950;DHT22;11139;51.284;7.226;2022-11-15T07:20:35;9.60;99.90
21950;DHT22;11139;51.284;7.226;2022-11-15T07:23:01;9.60;99.90
21950;DHT22;11139;51.284;7.226;2022-11-15T07:25:27;9.60;99.90
21950;DHT22;11139;51.284;7.226;2022-11-15T07:27:56;9.70;99.90
21950;DHT22;11139;51.284;7.226;2022-11-15T07:30:22;9.70;99.90
21950;DHT22;11139;51.284;7.226;2022-11-15T07:32:52;9.70;99.90
21950;DHT22;11139;51.284;7.226;2022-11-15T07:35:17;9.60;99.90
21950;DHT22;11139;51.284;7.226;2022-11-15T07:37:43;9.70;99.90
21950;DHT22;11139;51.284;7.226;2022-11-15T07:40:08;9.60;99.90
21950;DHT22;11139;51.284;7.226;2022-11-15T07:42:34;9.70;99.90
21950;DHT22;11139;51.284;7.226;2022-11-15T07:45:20;9.70;99.90
21950;DHT22;11139;51.284;7.226;2022-11-15T07:47:49;9.70;99.90
21950;DHT22;11139;51.284;7.226;2022-11-15T07:50:16;9.70;99.90
21950;DHT22;11139;51.284;7.226;2022-11-15T07:52:41;9.70;99.90
21950;DHT22;11139;51.284;7.226;2022-11-15T07:55:07;9.70;99.90
21950;DHT22;11139;51.284;7.226;2022-11-15T07:57:32;9.70;99.90
21950;DHT22;11139;51.284;7.226;2022-11-15T07:59:58;9.70;99.90
21950;DHT22;11139;51.284;7.226;2022-11-15T08:02:23;9.70;99.90
21950;DHT22;11139;51.284;7.226;2022-11-15T08:04:49;9.70;99.90
21950;DHT22;11139;51.284;7.226;2022-11-15T08:07:14;9.70;99.90
21950;DHT22;11139;51.284;7.226;2022-11-15T08:09:40;9.70;99.90
21950;DHT22;11139;51.284;7.226;2022-11-15T08:12:06;9.70;99.90
21950;DHT22;11139;51.284;7.226;2022-11-15T08:14:31;9.90;99.90
21950;DHT22;11139;51.284;7.226;2022-11-15T08:16:57;9.90;99.90
21950;DHT22;11139;51.284;7.226;2022-11-15T08:19:22;9.90;99.90
21950;DHT22;11139;51.284;7.226;2022-11-15T08:21:48;9.90;99.90
21950;DHT22;11139;51.284;7.226;2022-11-15T08:24:13;9.80;99.90
21950;DHT22;11139;51.284;7.226;2022-11-15T08:26:39;9.90;99.90
21950;DHT22;11139;51.284;7.226;2022-11-15T08:29:05;9.80;99.90
21950;DHT22;11139;51.284;7.226;2022-11-15T08:31:30;9.80;99.90
21950;DHT22;11139;51.284;7.226;2022-11-15T08:33:56;9.80;99.90
21950;DHT22;11139;51.284;7.226;2022-11-15T08:36:21;9.80;99.90
21950;DHT22;11139;51.284;7.226;2022-11-15T08:38:47;9.80;99.90
21950;DHT22;11139;51.284;7.226;2022-11-15T08:41:13;9.80;99.90
21950;DHT22;11139;51.284;7.226;2022-11-15T08:43:40;9.80;99.90
21950;DHT22;11139;51.284;7.226;2022-11-15T08:46:08;9.80;99.90
21950;DHT22;11139;51.284;7.226;2022-11-15T08:48:36;9.80;99.90
21950;DHT22;11139;51.284;7.226;2022-11-15T08:51:01;9.80;99.90
21950;DHT22;11139;51.284;7.226;2022-11-15T08:53:27;9.80;99.90
21950;DHT22;11139;51.284;7.226;2022-11-15T08:55:53;9.80;99.90
21950;DHT22;11139;51.284;7.226;2022-11-15T08:58:18;9.80;99.90
21950;DHT22;11139;51.284;7.226;2022-11-15T09:00:44;9.80;99.90
21950;DHT22;11139;51.284;7.226;2022-11-15T09:03:09;9.80;99.90
21950;DHT22;11139;51.284;7.226;2022-11-15T09:05:38;9.80;99.90
21950;DHT22;11139;51.284;7.226;2022-11-15T09:08:03;9.80;99.90
21950;DHT22;11139;51.284;7.226;2022-11-15T09:10:29;9.80;99.90
21950;DHT22;11139;51.284;7.226;2022-11-15T09:12:56;9.80;99.90
21950;DHT22;11139;51.284;7.226;2022-11-15T09:15:24;9.80;99.90
21950;DHT22;11139;51.284;7.226;2022-11-15T09:17:52;9.80;99.90
21950;DHT22;11139;51.284;7.226;2022-11-15T09:20:18;9.80;99.90
21950;DHT22;11139;51.284;7.226;2022-11-15T09:22:52;9.80;99.90
21950;DHT22;11139;51.284;7.226;2022-11-15T09:25:18;9.80;99.90
21950;DHT22;11139;51.284;7.226;2022-11-15T09:27:43;9.80;99.90
21950;DHT22;11139;51.284;7.226;2022-11-15T09:30:09;9.80;99.90
21950;DHT22;11139;51.284;7.226;2022-11-15T09:32:38;9.80;99.90
21950;DHT22;11139;51.284;7.226;2022-11-15T09:35:03;9.90;99.90
21950;DHT22;11139;51.284;7.226;2022-11-15T09:37:31;9.90;99.90
21950;DHT22;11139;51.284;7.226;2022-11-15T09:39:56;9.90;99.90
21950;DHT22;11139;51.284;7.226;2022-11-15T09:49:51;9.90;99.90
21950;DHT22;11139;51.284;7.226;2022-11-15T09:52:16;9.90;99.90
21950;DHT22;11139;51.284;7.226;2022-11-15T09:54:43;9.90;99.90
21950;DHT22;11139;51.284;7.226;2022-11-15T10:02:08;10.00;99.90
21950;DHT22;11139;51.284;7.226;2022-11-15T10:04:37;10.00;99.90
21950;DHT22;11139;51.284;7.226;2022-11-15T10:07:10;10.00;99.90
21950;DHT22;11139;51.284;7.226;2022-11-15T10:09:41;10.00;99.90
21950;DHT22;11139;51.284;7.226;2022-11-15T10:12:09;10.00;99.90
21950;DHT22;11139;51.284;7.226;2022-11-15T10:14:35;10.00;99.90
21950;DHT22;11139;51.284;7.226;2022-11-15T10:24:42;10.10;99.90
21950;DHT22;11139;51.284;7.226;2022-11-15T10:27:13;10.10;99.90
21950;DHT22;11139;51.284;7.226;2022-11-15T10:29:46;10.10;99.90
21950;DHT22;11139;51.284;7.226;2022-11-15T10:32:13;10.10;99.90
21950;DHT22;11139;51.284;7.226;2022-11-15T10:34:38;10.10;99.90
21950;DHT22;11139;51.284;7.226;2022-11-15T10:37:04;10.10;99.90
21950;DHT22;11139;51.284;7.226;2022-11-15T10:39:29;10.10;99.90
21950;DHT22;11139;51.284;7.226;2022-11-15T10:41:55;10.10;99.90
21950;DHT22;11139;51.284;7.226;2022-11-15T10:44:30;10.10;99.90
21950;DHT22;11139;51.284;7.226;2022-11-15T10:49:23;10.20;99.90
21950;DHT22;11139;51.284;7.226;2022-11-15T10:51:54;10.20;99.90
21950;DHT22;11139;51.284;7.226;2022-11-15T10:54:23;10.20;99.90
21950;DHT22;11139;51.284;7.226;2022-11-15T10:56:53;10.20;99.90
21950;DHT22;11139;51.284;7.226;2022-11-15T10:59:29;10.30;99.90
21950;DHT22;11139;51.284;7.226;2022-11-15T11:01:55;10.30;99.90
21950;DHT22;11139;51.284;7.226;2022-11-15T11:04:21;10.30;99.90
21950;DHT22;11139;51.284;7.226;2022-11-15T11:06:51;10.30;99.90
21950;DHT22;11139;51.284;7.226;2022-11-15T11:11:46;10.40;99.90
21950;DHT22;11139;51.284;7.226;2022-11-15T11:14:13;10.40;99.90
21950;DHT22;11139;51.284;7.226;2022-11-15T11:16:44;10.40;99.90
21950;DHT22;11139;51.284;7.226;2022-11-15T11:26:46;10.40;99.90
21950;DHT22;11139;51.284;7.226;2022-11-15T11:37:37;10.50;99.90
21950;DHT22;11139;51.284;7.226;2022-11-15T11:40:10;10.60;99.90
21950;DHT22;11139;51.284;7.226;2022-11-15T11:42:44;10.60;99.90
21950;DHT22;11139;51.284;7.226;2022-11-15T11:45:21;10.60;99.90
21950;DHT22;11139;51.284;7.226;2022-11-15T11:50:21;10.60;99.90
21950;DHT22;11139;51.284;7.226;2022-11-15T11:52:59;10.70;99.90
21950;DHT22;11139;51.284;7.226;2022-11-15T11:55:28;10.60;99.90
21950;DHT22;11139;51.284;7.226;2022-11-15T12:00:41;10.60;99.90
21950;DHT22;11139;51.284;7.226;2022-11-15T12:06:00;10.70;99.90
21950;DHT22;11139;51.284;7.226;2022-11-15T12:11:09;10.70;99.90
21950;DHT22;11139;51.284;7.226;2022-11-15T12:13:35;10.70;99.90
21950;DHT22;11139;51.284;7.226;2022-11-15T12:18:40;10.60;99.90
21950;DHT22;11139;51.284;7.226;2022-11-15T12:21:08;10.60;99.90
21950;DHT22;11139;51.284;7.226;2022-11-15T12:23:40;10.70;99.90
21950;DHT22;11139;51.284;7.226;2022-11-15T12:26:23;10.60;99.90
21950;DHT22;11139;51.284;7.226;2022-11-15T12:28:50;10.70;99.90
21950;DHT22;11139;51.284;7.226;2022-11-15T12:33:46;10.60;99.90
21950;DHT22;11139;51.284;7.226;2022-11-15T12:41:16;10.60;99.90
21950;DHT22;11139;51.284;7.226;2022-11-15T12:43:42;10.70;99.90
21950;DHT22;11139;51.284;7.226;2022-11-15T12:48:55;10.70;99.90
21950;DHT22;11139;51.284;7.226;2022-11-15T12:52:07;10.60;99.90
21950;DHT22;11139;51.284;7.226;2022-11-15T12:54:54;10.60;99.90
21950;DHT22;11139;51.284;7.226;2022-11-15T13:02:18;10.70;99.90
21950;DHT22;11139;51.284;7.226;2022-11-15T13:04:44;10.70;99.90
21950;DHT22;11139;51.284;7.226;2022-11-15T13:07:09;10.70;99.90
21950;DHT22;11139;51.284;7.226;2022-11-15T13:09:55;10.70;99.90
21950;DHT22;11139;51.284;7.226;2022-11-15T13:15:07;10.70;99.90
21950;DHT22;11139;51.284;7.226;2022-11-15T13:17:35;10.80;99.90
21950;DHT22;11139;51.284;7.226;2022-11-15T13:27:52;10.80;99.90
21950;DHT22;11139;51.284;7.226;2022-11-15T13:30:21;10.70;99.90
21950;DHT22;11139;51.284;7.226;2022-11-15T13:32:50;10.70;99.90
21950;DHT22;11139;51.284;7.226;2022-11-15T13:35:36;10.70;99.90
21950;DHT22;11139;51.284;7.226;2022-11-15T13:38:04;10.60;99.90
21950;DHT22;11139;51.284;7.226;2022-11-15T13:40:36;10.70;99.90
21950;DHT22;11139;51.284;7.226;2022-11-15T13:48:54;10.90;99.90
21950;DHT22;11139;51.284;7.226;2022-11-15T13:54:21;11.30;99.90
21950;DHT22;11139;51.284;7.226;2022-11-15T13:59:57;11.40;99.90
21950;DHT22;11139;51.284;7.226;2022-11-15T14:02:39;11.50;99.90
21950;DHT22;11139;51.284;7.226;2022-11-15T14:08:58;11.50;99.90
21950;DHT22;11139;51.284;7.226;2022-11-15T14:11:24;11.60;99.90
21950;DHT22;11139;51.284;7.226;2022-11-15T14:16:49;11.60;99.90
21950;DHT22;11139;51.284;7.226;2022-11-15T14:25:51;11.50;99.90
21950;DHT22;11139;51.284;7.226;2022-11-15T14:28:37;11.60;99.90
21950;DHT22;11139;51.284;7.226;2022-11-15T14:34:02;11.60;99.90
21950;DHT22;11139;51.284;7.226;2022-11-15T14:36:38;11.50;99.90
21950;DHT22;11139;51.284;7.226;2022-11-15T14:39:12;11.50;99.90
21950;DHT22;11139;51.284;7.226;2022-11-15T14:41:47;11.60;99.90
21950;DHT22;11139;51.284;7.226;2022-11-15T14:44:15;11.50;99.90
21950;DHT22;11139;51.284;7.226;2022-11-15T14:46:48;11.50;99.90
21950;DHT22;11139;51.284;7.226;2022-11-15T14:49:13;11.50;99.90
21950;DHT22;11139;51.284;7.226;2022-11-15T14:51:58;11.50;99.90
21950;DHT22;11139;51.284;7.226;2022-11-15T14:54:34;11.50;99.90
21950;DHT22;11139;51.284;7.226;2022-11-15T14:57:07;11.50;99.90
21950;DHT22;11139;51.284;7.226;2022-11-15T15:00:11;11.50;99.90
21950;DHT22;11139;51.284;7.226;2022-11-15T15:02:37;11.50;99.90
21950;DHT22;11139;51.284;7.226;2022-11-15T15:17:06;11.40;99.90
21950;DHT22;11139;51.284;7.226;2022-11-15T15:19:38;11.40;99.90
21950;DHT22;11139;51.284;7.226;2022-11-15T15:22:09;11.40;99.90
21950;DHT22;11139;51.284;7.226;2022-11-15T15:24:43;11.40;99.90
21950;DHT22;11139;51.284;7.226;2022-11-15T15:27:16;11.40;99.90
21950;DHT22;11139;51.284;7.226;2022-11-15T15:33:21;11.40;99.90
21950;DHT22;11139;51.284;7.226;2022-11-15T15:36:04;11.40;99.90
21950;DHT22;11139;51.284;7.226;2022-11-15T15:38:54;11.40;99.90
21950;DHT22;11139;51.284;7.226;2022-11-15T15:41:30;11.40;99.90
21950;DHT22;11139;51.284;7.226;2022-11-15T15:43:59;11.40;99.90
21950;DHT22;11139;51.284;7.226;2022-11-15T15:52:48;11.40;99.90
21950;DHT22;11139;51.284;7.226;2022-11-15T15:55:23;11.40;99.90
21950;DHT22;11139;51.284;7.226;2022-11-15T15:58:12;11.40;99.90
21950;DHT22;11139;51.284;7.226;2022-11-15T16:00:38;11.40;99.90
21950;DHT22;11139;51.284;7.226;2022-11-15T16:03:04;11.40;99.90
21950;DHT22;11139;51.284;7.226;2022-11-15T16:05:42;11.30;99.90
21950;DHT22;11139;51.284;7.226;2022-11-15T16:11:34;11.40;99.90
21950;DHT22;11139;51.284;7.226;2022-11-15T16:14:24;11.40;99.90
21950;DHT22;11139;51.284;7.226;2022-11-15T16:17:11;11.40;99.90
21950;DHT22;11139;51.284;7.226;2022-11-15T16:22:49;11.40;99.90
21950;DHT22;11139;51.284;7.226;2022-11-15T16:28:29;11.40;99.90
21950;DHT22;11139;51.284;7.226;2022-11-15T16:33:32;11.40;99.90
21950;DHT22;11139;51.284;7.226;2022-11-15T16:35:57;11.40;99.90
21950;DHT22;11139;51.284;7.226;2022-11-15T16:38:23;11.30;99.90
21950;DHT22;11139;51.284;7.226;2022-11-15T16:40:48;11.30;99.90
21950;DHT22;11139;51.284;7.226;2022-11-15T16:43:17;11.30;99.90
21950;DHT22;11139;51.284;7.226;2022-11-15T16:45:42;11.30;99.90
21950;DHT22;11139;51.284;7.226;2022-11-15T16:48:15;11.30;99.90
21950;DHT22;11139;51.284;7.226;2022-11-15T16:50:44;11.30;99.90
21950;DHT22;11139;51.284;7.226;2022-11-15T16:53:10;11.30;99.90
21950;DHT22;11139;51.284;7.226;2022-11-15T16:55:36;11.30;99.90
21950;DHT22;11139;51.284;7.226;2022-11-15T16:58:01;11.30;99.90
21950;DHT22;11139;51.284;7.226;2022-11-15T17:00:26;11.30;99.90
21950;DHT22;11139;51.284;7.226;2022-11-15T17:02:52;11.30;99.90
21950;DHT22;11139;51.284;7.226;2022-11-15T17:05:19;11.30;99.90
21950;DHT22;11139;51.284;7.226;2022-11-15T17:07:46;11.30;99.90
21950;DHT22;11139;51.284;7.226;2022-11-15T17:10:13;11.30;99.90
21950;DHT22;11139;51.284;7.226;2022-11-15T17:12:38;11.30;99.90
21950;DHT22;11139;51.284;7.226;2022-11-15T17:15:04;11.30;99.90
21950;DHT22;11139;51.284;7.226;2022-11-15T17:17:30;11.30;99.90
21950;DHT22;11139;51.284;7.226;2022-11-15T17:19:55;11.30;99.90
21950;DHT22;11139;51.284;7.226;2022-11-15T17:22:21;11.30;99.90
21950;DHT22;11139;51.284;7.226;2022-11-15T17:24:47;11.30;99.90
21950;DHT22;11139;51.284;7.226;2022-11-15T17:27:15;11.30;99.90
21950;DHT22;11139;51.284;7.226;2022-11-15T17:29:41;11.30;99.90
21950;DHT22;11139;51.284;7.226;2022-11-15T17:32:07;11.30;99.90
21950;DHT22;11139;51.284;7.226;2022-11-15T17:34:33;11.30;99.90
21950;DHT22;11139;51.284;7.226;2022-11-15T17:36:59;11.30;99.90
21950;DHT22;11139;51.284;7.226;2022-11-15T17:39:24;11.30;99.90
21950;DHT22;11139;51.284;7.226;2022-11-15T17:41:50;11.30;99.90
21950;DHT22;11139;51.284;7.226;2022-11-15T17:44:15;11.30;99.90
21950;DHT22;11139;51.284;7.226;2022-11-15T17:46:41;11.30;99.90
21950;DHT22;11139;51.284;7.226;2022-11-15T17:49:07;11.40;99.90
21950;DHT22;11139;51.284;7.226;2022-11-15T17:51:32;11.30;99.90
21950;DHT22;11139;51.284;7.226;2022-11-15T17:53:58;11.30;99.90
21950;DHT22;11139;51.284;7.226;2022-11-15T17:56:24;11.30;99.90
21950;DHT22;11139;51.284;7.226;2022-11-15T17:58:51;11.40;99.90
21950;DHT22;11139;51.284;7.226;2022-11-15T18:01:21;11.30;99.90
21950;DHT22;11139;51.284;7.226;2022-11-15T18:03:47;11.30;99.90
21950;DHT22;11139;51.284;7.226;2022-11-15T18:06:12;11.30;99.90
21950;DHT22;11139;51.284;7.226;2022-11-15T18:08:39;11.30;99.90
21950;DHT22;11139;51.284;7.226;2022-11-15T18:11:09;11.30;99.90
21950;DHT22;11139;51.284;7.226;2022-11-15T18:13:39;11.30;99.90
21950;DHT22;11139;51.284;7.226;2022-11-15T18:16:05;11.30;99.90
21950;DHT22;11139;51.284;7.226;2022-11-15T18:18:32;11.40;99.90
21950;DHT22;11139;51.284;7.226;2022-11-15T18:21:04;11.30;99.90
21950;DHT22;11139;51.284;7.226;2022-11-15T18:23:31;11.30;99.90
21950;DHT22;11139;51.284;7.226;2022-11-15T18:25:57;11.30;99.90
21950;DHT22;11139;51.284;7.226;2022-11-15T18:28:27;11.30;99.90
21950;DHT22;11139;51.284;7.226;2022-11-15T18:30:53;11.30;99.90
21950;DHT22;11139;51.284;7.226;2022-11-15T18:33:18;11.30;99.90
21950;DHT22;11139;51.284;7.226;2022-11-15T18:35:44;11.30;99.90
21950;DHT22;11139;51.284;7.226;2022-11-15T18:38:09;11.30;99.90